Time;durP1;ratioP1;P1;durP2;ratioP2;P2;SDS_P1;SDS_P2;PMS_P1;PMS_P2;Temp;Humidity;BMP_temperature;BMP_pressure;BME280_temperature;BME280_humidity;BME280_pressure;Samples;Min_cycle;Max_cycle;Signal;HPM_P1;HPM_P2
2023/01/23 00:00:32;;;;;;;23.23;14.90;;;2.50;99.90;;;;;;5088429;28;20469;-64
2023/01/23 00:02:58;;;;;;;23.67;14.10;;;2.50;99.90;;;;;;5071122;28;20111;-64
2023/01/23 00:05:23;;;;;;;22.15;14.35;;;2.50;99.90;;;;;;5089497;28;20170;-64
2023/01/23 00:07:49;;;;;;;21.90;14.55;;;2.50;99.90;;;;;;5113041;28;20545;-63
2023/01/23 00:10:14;;;;;;;21.58;13.75;;;2.50;99.90;;;;;;5092246;28;20032;-64
2023/01/23 00:12:42;;;;;;;24.30;14.68;;;2.50;99.90;;;;;;5090544;28;20036;-64
2023/01/23 00:15:08;;;;;;;21.55;14.45;;;2.50;99.90;;;;;;5072358;28;20454;-64
2023/01/23 00:17:34;;;;;;;17.98;12.50;;;2.50;99.90;;;;;;5095526;28;20560;-64
2023/01/23 00:19:59;;;;;;;21.90;13.82;;;2.50;99.90;;;;;;5096103;28;20024;-64
2023/01/23 00:22:25;;;;;;;25.00;13.75;;;2.50;99.90;;;;;;5090533;28;20028;-64
2023/01/23 00:24:51;;;;;;;26.48;15.30;;;2.50;99.90;;;;;;5090534;28;20049;-64
2023/01/23 00:27:17;;;;;;;20.23;13.07;;;2.50;99.90;;;;;;5090083;28;20104;-64
2023/01/23 00:29:43;;;;;;;20.30;14.60;;;2.50;99.90;;;;;;5102329;28;20514;-63
2023/01/23 00:32:09;;;;;;;22.27;14.73;;;2.50;99.90;;;;;;5071632;28;20028;-64
2023/01/23 00:34:34;;;;;;;20.35;14.00;;;2.50;99.90;;;;;;5071440;28;20390;-64
2023/01/23 00:37:00;;;;;;;25.00;14.88;;;2.50;99.90;;;;;;5079885;28;20028;-63
2023/01/23 00:39:25;;;;;;;19.65;13.15;;;2.50;99.90;;;;;;5092820;28;20533;-64
2023/01/23 00:41:51;;;;;;;18.80;12.77;;;2.50;99.90;;;;;;5071790;28;20016;-64
2023/01/23 00:44:16;;;;;;;23.70;13.10;;;2.50;99.90;;;;;;5075229;28;20070;-66
2023/01/23 00:46:42;;;;;;;18.17;11.90;;;2.50;99.90;;;;;;5092823;28;20024;-66
2023/01/23 00:49:08;;;;;;;18.40;12.52;;;2.60;99.90;;;;;;5092064;28;20036;-64
2023/01/23 00:51:34;;;;;;;18.13;12.30;;;2.60;99.90;;;;;;5089805;28;20099;-63
2023/01/23 00:54:00;;;;;;;24.88;14.48;;;2.50;99.90;;;;;;5071583;28;20059;-64
2023/01/23 00:56:25;;;;;;;21.45;14.07;;;2.50;99.90;;;;;;5089555;28;20508;-64
2023/01/23 00:58:51;;;;;;;20.27;13.13;;;2.50;99.90;;;;;;5096749;28;20540;-64
2023/01/23 01:01:16;;;;;;;19.25;13.23;;;2.50;99.90;;;;;;5091931;27;20024;-64
2023/01/23 01:03:43;;;;;;;19.25;13.32;;;2.50;99.90;;;;;;5089481;28;20108;-64
2023/01/23 01:06:10;;;;;;;19.20;12.85;;;2.60;99.90;;;;;;5091847;28;20048;-63
2023/01/23 01:08:35;;;;;;;19.17;12.55;;;2.50;99.90;;;;;;5095243;27;20084;-64
2023/01/23 01:11:01;;;;;;;17.65;11.88;;;2.60;99.90;;;;;;5095993;28;20532;-64
2023/01/23 01:13:26;;;;;;;18.13;11.40;;;2.60;99.90;;;;;;5073955;28;20032;-64
2023/01/23 01:15:53;;;;;;;20.27;12.88;;;2.60;99.90;;;;;;5070617;28;20139;-64
2023/01/23 01:18:20;;;;;;;17.77;11.10;;;2.60;99.90;;;;;;5092081;28;20036;-63
2023/01/23 01:20:46;;;;;;;17.70;12.95;;;2.60;99.90;;;;;;5090579;28;20008;-65
2023/01/23 01:23:11;;;;;;;20.83;10.77;;;2.60;99.90;;;;;;5089217;28;20536;-64
2023/01/23 01:25:38;;;;;;;21.45;12.13;;;2.60;99.90;;;;;;5088834;28;20540;-64
2023/01/23 01:28:04;;;;;;;17.90;11.40;;;2.60;99.90;;;;;;5080677;28;20027;-64
2023/01/23 01:30:29;;;;;;;21.90;13.15;;;2.60;99.90;;;;;;5077217;28;20046;-64
2023/01/23 01:32:55;;;;;;;22.55;13.70;;;2.60;99.90;;;;;;5093110;28;20020;-64
2023/01/23 01:35:22;;;;;;;21.80;13.23;;;2.60;99.90;;;;;;5073224;28;20119;-64
2023/01/23 01:37:48;;;;;;;20.17;12.88;;;2.60;99.90;;;;;;5081449;28;20034;-63
2023/01/23 01:40:17;;;;;;;23.35;12.95;;;2.60;99.90;;;;;;5090984;28;20028;-64
2023/01/23 01:42:46;;;;;;;21.92;13.65;;;2.60;99.90;;;;;;5096951;28;20090;-64
2023/01/23 01:45:50;;;;;;;23.33;15.25;;;2.60;99.90;;;;;;5092740;28;20103;-64
2023/01/23 01:48:17;;;;;;;23.70;13.70;;;2.60;99.90;;;;;;5091297;28;20099;-64
2023/01/23 01:50:42;;;;;;;21.60;13.30;;;2.60;99.90;;;;;;5089506;28;20043;-64
2023/01/23 01:53:09;;;;;;;21.40;14.80;;;2.60;99.90;;;;;;5088263;28;20485;-64
2023/01/23 01:55:36;;;;;;;24.98;14.88;;;2.60;99.90;;;;;;5070437;28;20028;-63
2023/01/23 01:58:01;;;;;;;22.17;14.00;;;2.60;99.90;;;;;;5081458;28;20046;-64
2023/01/23 02:00:27;;;;;;;22.50;14.50;;;2.60;99.90;;;;;;5090991;28;20024;-65
2023/01/23 02:02:57;;;;;;;20.05;13.32;;;2.60;99.90;;;;;;5094506;27;20384;-63
2023/01/23 02:05:24;;;;;;;20.15;13.63;;;2.60;99.90;;;;;;5100628;27;20377;-64
2023/01/23 02:07:59;;;;;;;22.85;13.90;;;2.70;99.90;;;;;;5072805;28;20378;-64
2023/01/23 02:10:25;;;;;;;20.35;12.60;;;2.60;99.90;;;;;;5074522;28;20081;-64
2023/01/23 02:12:51;;;;;;;20.88;13.30;;;2.70;99.90;;;;;;5083547;28;20027;-63
2023/01/23 02:15:20;;;;;;;21.10;12.20;;;2.70;99.90;;;;;;5071262;28;20044;-64
2023/01/23 02:17:48;;;;;;;21.13;13.95;;;2.70;99.90;;;;;;5092355;28;20073;-64
2023/01/23 02:20:23;;;;;;;21.50;13.65;;;2.70;99.90;;;;;;5089078;28;20023;-64
2023/01/23 02:23:40;;;;;;;20.40;12.70;;;2.70;99.90;;;;;;5091784;28;20019;-64
2023/01/23 02:26:13;;;;;;;20.58;12.68;;;2.70;99.90;;;;;;5078070;28;20457;-64
2023/01/23 02:28:46;;;;;;;20.23;12.13;;;2.70;99.90;;;;;;5090515;28;20485;-64
2023/01/23 02:31:12;;;;;;;26.35;14.00;;;2.70;99.90;;;;;;5093093;28;20054;-64
2023/01/23 02:33:38;;;;;;;23.52;14.85;;;2.70;99.90;;;;;;5093160;28;20055;-64
2023/01/23 02:36:05;;;;;;;24.10;14.63;;;2.70;99.90;;;;;;5081405;28;20507;-64
2023/01/23 02:38:36;;;;;;;20.80;14.13;;;2.70;99.90;;;;;;5090331;28;20027;-64
2023/01/23 02:41:06;;;;;;;20.73;14.35;;;2.70;99.90;;;;;;5088048;28;20465;-64
2023/01/23 02:43:34;;;;;;;21.80;13.45;;;2.70;99.90;;;;;;5093814;28;20481;-64
2023/01/23 02:46:05;;;;;;;23.20;14.25;;;2.70;99.90;;;;;;5090582;28;20059;-64
2023/01/23 02:48:30;;;;;;;22.08;13.63;;;2.70;99.90;;;;;;5069692;28;20020;-65
2023/01/23 02:50:56;;;;;;;23.63;13.20;;;2.70;99.90;;;;;;5078504;28;20065;-64
2023/01/23 02:53:22;;;;;;;25.35;14.65;;;2.70;99.90;;;;;;5107746;27;20092;-64
2023/01/23 02:55:47;;;;;;;23.48;15.13;;;2.70;99.90;;;;;;5117073;28;20024;-64
2023/01/23 03:00:57;;;;;;;21.85;14.73;;;2.70;99.90;;;;;;5093180;28;20370;-64
2023/01/23 03:03:23;;;;;;;22.40;13.18;;;2.70;99.90;;;;;;5090254;28;20412;-64
2023/01/23 03:05:49;;;;;;;22.13;14.30;;;2.70;99.90;;;;;;5076996;28;20174;-64
2023/01/23 03:08:15;;;;;;;20.58;12.95;;;2.70;99.90;;;;;;5072111;28;20508;-64
2023/01/23 03:10:40;;;;;;;24.52;14.10;;;2.70;99.90;;;;;;5091285;28;20103;-64
2023/01/23 03:13:08;;;;;;;23.45;15.02;;;2.70;99.90;;;;;;5087689;28;20477;-64
2023/01/23 03:15:34;;;;;;;25.73;15.57;;;2.70;99.90;;;;;;5090285;28;20052;-64
2023/01/23 03:18:00;;;;;;;22.20;14.00;;;2.70;99.90;;;;;;5087445;28;20024;-64
2023/01/23 03:20:27;;;;;;;29.58;19.40;;;2.70;99.90;;;;;;5091587;28;20030;-64
2023/01/23 03:22:53;;;;;;;24.40;16.73;;;2.70;99.90;;;;;;5092983;28;20019;-64
2023/01/23 03:25:19;;;;;;;24.67;15.43;;;2.70;99.90;;;;;;5071506;28;20027;-64
2023/01/23 03:27:44;;;;;;;24.17;16.70;;;2.70;99.90;;;;;;5089656;28;20024;-64
2023/01/23 03:30:12;;;;;;;25.10;15.13;;;2.70;99.90;;;;;;5095947;28;20035;-64
2023/01/23 03:32:38;;;;;;;27.17;15.93;;;2.70;99.90;;;;;;5091608;28;20107;-64
2023/01/23 03:35:05;;;;;;;24.38;14.88;;;2.70;99.90;;;;;;5088829;28;20027;-64
2023/01/23 03:37:31;;;;;;;24.35;15.32;;;2.70;99.90;;;;;;5071507;28;20028;-64
2023/01/23 03:42:40;;;;;;;24.20;14.75;;;2.80;99.90;;;;;;5093107;28;20107;-64
2023/01/23 03:45:07;;;;;;;25.17;14.68;;;2.70;99.90;;;;;;5094691;28;20095;-64
2023/01/23 03:47:33;;;;;;;26.05;14.60;;;2.70;99.90;;;;;;5096562;28;20032;-64
2023/01/23 03:49:58;;;;;;;23.33;14.90;;;2.70;99.90;;;;;;5091218;28;20389;-64
2023/01/23 03:52:24;;;;;;;24.67;14.88;;;2.80;99.90;;;;;;5096256;28;20437;-63
2023/01/23 03:54:50;;;;;;;23.08;14.30;;;2.80;99.90;;;;;;5093333;28;20035;-64
2023/01/23 03:57:15;;;;;;;23.33;15.13;;;2.80;99.90;;;;;;5077234;28;20081;-63
2023/01/23 03:59:41;;;;;;;23.98;15.23;;;2.80;99.90;;;;;;5091872;28;20020;-64
2023/01/23 04:02:07;;;;;;;27.20;15.93;;;2.80;99.90;;;;;;5093299;28;20473;-64
2023/01/23 04:04:33;;;;;;;25.23;16.33;;;2.80;99.90;;;;;;5098091;28;20159;-64
2023/01/23 04:07:00;;;;;;;24.52;15.48;;;2.80;99.90;;;;;;5097132;28;20491;-66
2023/01/23 04:09:26;;;;;;;27.23;16.48;;;2.80;99.90;;;;;;5077642;28;20027;-64
2023/01/23 04:11:56;;;;;;;25.63;15.75;;;2.80;99.90;;;;;;5072367;28;20447;-64
2023/01/23 04:14:23;;;;;;;27.58;16.90;;;2.80;99.90;;;;;;5093360;28;20497;-63
2023/01/23 04:16:48;;;;;;;29.50;17.45;;;2.80;99.90;;;;;;5084317;28;20035;-64
2023/01/23 04:19:14;;;;;;;29.02;17.63;;;2.80;99.90;;;;;;5094815;28;20024;-64
2023/01/23 04:21:39;;;;;;;23.15;14.15;;;2.80;99.90;;;;;;5090661;27;20103;-64
2023/01/23 04:24:05;;;;;;;26.55;16.35;;;2.80;99.90;;;;;;5071872;28;20022;-64
2023/01/23 04:26:33;;;;;;;22.98;15.10;;;2.80;99.90;;;;;;5077813;28;20020;-64
2023/01/23 04:28:58;;;;;;;24.70;16.00;;;2.80;99.90;;;;;;5090970;28;20024;-64
2023/01/23 04:31:24;;;;;;;26.77;15.38;;;2.80;99.90;;;;;;5090024;28;20043;-64
2023/01/23 04:33:49;;;;;;;24.88;15.93;;;2.80;99.90;;;;;;5090123;28;20473;-64
2023/01/23 04:36:16;;;;;;;22.95;14.35;;;2.80;99.90;;;;;;5093039;28;20019;-64
2023/01/23 04:38:41;;;;;;;22.05;13.73;;;2.80;99.90;;;;;;5089487;28;20023;-64
2023/01/23 04:41:08;;;;;;;26.00;17.23;;;2.80;99.90;;;;;;5098499;28;20017;-64
2023/01/23 04:43:34;;;;;;;27.60;16.38;;;2.80;99.90;;;;;;5080082;28;20472;-64
2023/01/23 04:46:00;;;;;;;27.38;15.27;;;2.80;99.90;;;;;;5089758;28;20016;-64
2023/01/23 04:48:25;;;;;;;23.15;15.32;;;2.80;99.90;;;;;;5093294;28;20024;-64
2023/01/23 04:50:51;;;;;;;26.23;16.40;;;2.80;99.90;;;;;;5095221;28;20032;-64
2023/01/23 04:53:17;;;;;;;27.50;17.90;;;2.80;99.90;;;;;;5112236;27;20047;-64
2023/01/23 04:55:42;;;;;;;26.92;16.80;;;2.80;99.90;;;;;;5091853;28;20027;-64
2023/01/23 04:58:10;;;;;;;28.00;16.13;;;2.80;99.90;;;;;;5092896;28;20024;-64
2023/01/23 05:00:36;;;;;;;25.02;16.55;;;2.80;99.90;;;;;;5113297;27;20519;-64
2023/01/23 05:03:01;;;;;;;27.25;17.65;;;2.90;99.90;;;;;;5095437;28;20119;-64
2023/01/23 05:05:27;;;;;;;24.52;15.40;;;2.80;99.90;;;;;;5092181;28;20012;-64
2023/01/23 05:07:52;;;;;;;24.25;15.15;;;2.80;99.90;;;;;;5072963;28;20024;-64
2023/01/23 05:10:18;;;;;;;24.08;15.43;;;2.80;99.90;;;;;;5073641;28;20030;-64
2023/01/23 05:12:44;;;;;;;22.52;14.80;;;2.90;99.90;;;;;;5089308;28;20374;-64
2023/01/23 05:15:10;;;;;;;27.20;16.88;;;2.90;99.90;;;;;;5076256;28;20048;-64
2023/01/23 05:17:35;;;;;;;28.92;16.23;;;2.80;99.90;;;;;;5093166;28;20441;-64
2023/01/23 05:20:01;;;;;;;28.05;17.33;;;2.80;99.90;;;;;;5093235;28;20500;-64
2023/01/23 05:22:27;;;;;;;24.48;16.48;;;2.90;99.90;;;;;;5088708;28;20034;-64
2023/01/23 05:24:52;;;;;;;26.20;16.10;;;2.90;99.90;;;;;;5089248;28;20026;-64
2023/01/23 05:27:18;;;;;;;26.42;16.30;;;2.90;99.90;;;;;;5111181;27;20024;-64
2023/01/23 05:29:43;;;;;;;27.75;16.83;;;2.90;99.90;;;;;;5089040;28;20028;-64
2023/01/23 05:32:09;;;;;;;29.08;19.13;;;2.90;99.90;;;;;;5088844;28;20493;-64
2023/01/23 05:34:35;;;;;;;26.13;17.38;;;2.90;99.90;;;;;;5089249;28;20063;-64
2023/01/23 05:37:00;;;;;;;27.42;17.40;;;2.80;99.90;;;;;;5077029;28;20039;-64
2023/01/23 05:39:26;;;;;;;30.55;18.30;;;2.90;99.90;;;;;;5096985;28;20733;-64
2023/01/23 05:41:51;;;;;;;28.25;17.05;;;2.80;99.90;;;;;;5091737;28;20381;-64
2023/01/23 05:44:17;;;;;;;28.48;18.02;;;2.80;99.90;;;;;;5091237;28;20095;-64
2023/01/23 05:46:42;;;;;;;28.05;17.42;;;2.90;99.90;;;;;;5073525;28;20511;-64
2023/01/23 05:49:08;;;;;;;25.73;16.98;;;2.90;99.90;;;;;;5084457;28;20031;-64
2023/01/23 05:51:34;;;;;;;32.42;20.35;;;2.90;99.90;;;;;;5090688;28;20104;-64
2023/01/23 05:54:00;;;;;;;30.38;18.58;;;2.80;99.90;;;;;;5088305;28;20035;-64
2023/01/23 05:56:26;;;;;;;23.55;16.88;;;2.90;99.90;;;;;;5073436;28;20067;-64
2023/01/23 05:58:52;;;;;;;27.52;16.63;;;2.90;99.90;;;;;;5089862;28;20077;-63
2023/01/23 06:01:18;;;;;;;30.17;17.25;;;2.80;99.90;;;;;;5092014;28;20023;-64
2023/01/23 06:03:44;;;;;;;25.58;18.20;;;2.80;99.90;;;;;;5088160;28;20546;-64
2023/01/23 06:06:10;;;;;;;26.77;18.05;;;2.90;99.90;;;;;;5073415;28;20043;-64
2023/01/23 06:08:35;;;;;;;24.67;16.55;;;2.90;99.90;;;;;;5072307;28;20399;-63
2023/01/23 06:11:01;;;;;;;25.77;16.05;;;2.90;99.90;;;;;;5111129;27;20023;-63
2023/01/23 06:13:27;;;;;;;29.88;15.90;;;2.90;99.90;;;;;;5108109;28;20396;-64
2023/01/23 06:15:53;;;;;;;24.70;16.23;;;2.90;99.90;;;;;;5108765;28;20055;-64
2023/01/23 06:18:19;;;;;;;26.25;17.05;;;2.90;99.90;;;;;;5101846;28;20034;-64
2023/01/23 06:20:45;;;;;;;29.02;17.88;;;2.90;99.90;;;;;;5100740;28;20016;-64
2023/01/23 06:23:11;;;;;;;25.05;15.85;;;2.90;99.90;;;;;;5106127;28;20473;-64
2023/01/23 06:25:37;;;;;;;24.92;15.63;;;2.90;99.90;;;;;;5081928;28;20404;-64
2023/01/23 06:28:03;;;;;;;23.20;15.43;;;2.90;99.90;;;;;;5080666;28;20028;-64
2023/01/23 06:30:28;;;;;;;20.70;14.27;;;2.90;99.90;;;;;;5094245;28;20034;-64
2023/01/23 06:32:54;;;;;;;25.85;15.23;;;3.00;99.90;;;;;;5078134;28;20485;-64
2023/01/23 06:35:19;;;;;;;25.45;15.98;;;3.00;99.90;;;;;;5092994;28;20040;-64
2023/01/23 06:37:45;;;;;;;26.88;17.27;;;3.00;99.90;;;;;;5111541;28;20038;-64
2023/01/23 06:40:14;;;;;;;26.40;17.45;;;3.00;99.90;;;;;;5111376;28;20027;-64
2023/01/23 06:42:41;;;;;;;31.00;18.30;;;3.00;99.90;;;;;;5096687;28;20016;-64
2023/01/23 06:45:08;;;;;;;25.70;17.80;;;3.00;99.90;;;;;;5089610;28;20019;-64
2023/01/23 06:47:34;;;;;;;26.08;17.80;;;3.00;99.90;;;;;;5083286;28;20027;-64
2023/01/23 06:50:02;;;;;;;25.27;17.25;;;3.00;99.90;;;;;;5094041;28;20016;-64
2023/01/23 06:52:29;;;;;;;23.20;15.82;;;3.00;99.90;;;;;;5108566;28;20030;-64
2023/01/23 06:54:54;;;;;;;24.00;16.00;;;3.00;99.90;;;;;;5104462;28;20027;-64
2023/01/23 06:57:20;;;;;;;25.02;15.73;;;3.00;99.90;;;;;;5087728;28;20028;-64
2023/01/23 06:59:46;;;;;;;22.27;15.35;;;3.00;99.90;;;;;;5087688;28;20024;-64
2023/01/23 07:02:12;;;;;;;22.00;16.02;;;3.00;99.90;;;;;;5090636;28;20095;-64
2023/01/23 07:04:38;;;;;;;27.58;17.88;;;3.00;99.90;;;;;;5091474;28;20033;-64
2023/01/23 07:07:04;;;;;;;27.70;17.55;;;3.00;99.90;;;;;;5091208;28;20016;-64
2023/01/23 07:09:29;;;;;;;26.52;15.98;;;3.00;99.90;;;;;;5094603;28;20465;-64
2023/01/23 07:11:55;;;;;;;25.10;17.85;;;3.00;99.90;;;;;;5089666;28;20481;-64
2023/01/23 07:14:21;;;;;;;25.42;17.00;;;3.00;99.90;;;;;;5090656;28;20056;-64
2023/01/23 07:16:46;;;;;;;25.70;17.70;;;3.00;99.90;;;;;;5098669;28;20150;-64
2023/01/23 07:19:12;;;;;;;31.40;18.65;;;3.00;99.90;;;;;;5078403;28;20396;-64
2023/01/23 07:21:37;;;;;;;25.48;18.02;;;3.00;99.90;;;;;;5077166;28;20477;-64
2023/01/23 07:24:04;;;;;;;28.88;18.70;;;3.00;99.90;;;;;;5095552;28;20441;-64
2023/01/23 07:26:29;;;;;;;27.10;18.30;;;3.00;99.90;;;;;;5106461;28;20377;-64
2023/01/23 07:28:55;;;;;;;22.38;15.82;;;3.00;99.90;;;;;;5097361;28;20049;-64
2023/01/23 07:31:20;;;;;;;23.60;14.68;;;3.00;99.90;;;;;;5096004;28;20020;-64
2023/01/23 07:33:46;;;;;;;26.45;17.50;;;3.00;99.90;;;;;;5094884;28;20016;-64
2023/01/23 07:36:17;;;;;;;28.05;17.90;;;3.00;99.90;;;;;;5095143;28;20062;-63
2023/01/23 07:38:43;;;;;;;27.73;18.98;;;3.00;99.90;;;;;;5111639;27;20028;-64
2023/01/23 07:41:09;;;;;;;29.30;19.17;;;3.00;99.90;;;;;;5110698;28;20520;-64
2023/01/23 07:43:34;;;;;;;31.38;17.98;;;3.00;99.90;;;;;;5094725;28;20089;-64
2023/01/23 07:46:00;;;;;;;28.17;19.23;;;3.00;99.90;;;;;;5095155;28;20489;-64
2023/01/23 07:48:26;;;;;;;29.75;19.33;;;3.00;99.90;;;;;;5095851;28;20032;-64
2023/01/23 07:50:52;;;;;;;31.13;20.30;;;3.00;99.90;;;;;;5094819;28;20020;-64
2023/01/23 07:53:17;;;;;;;28.88;18.33;;;3.00;99.90;;;;;;5095170;28;20020;-64
2023/01/23 07:55:43;;;;;;;27.02;17.88;;;3.00;99.90;;;;;;5094689;28;20036;-64
2023/01/23 07:58:09;;;;;;;28.15;18.17;;;3.10;99.90;;;;;;5103180;28;20016;-64
2023/01/23 08:00:34;;;;;;;29.13;18.05;;;3.10;99.90;;;;;;5101169;28;20039;-63
2023/01/23 08:03:00;;;;;;;32.38;19.90;;;3.10;99.90;;;;;;5094813;28;20028;-63
2023/01/23 08:05:25;;;;;;;25.40;17.35;;;3.10;99.90;;;;;;5095767;28;20431;-63
2023/01/23 08:07:51;;;;;;;26.98;17.35;;;3.10;99.90;;;;;;5105095;28;20526;-63
2023/01/23 08:10:17;;;;;;;29.58;20.02;;;3.10;99.90;;;;;;5106078;28;20030;-63
2023/01/23 08:12:42;;;;;;;26.67;17.83;;;3.20;99.90;;;;;;5098676;28;20020;-63
2023/01/23 08:15:08;;;;;;;24.85;17.88;;;3.20;99.90;;;;;;5104251;28;20048;-63
2023/01/23 08:17:35;;;;;;;27.52;17.27;;;3.20;99.90;;;;;;5101023;28;20074;-63
2023/01/23 08:20:00;;;;;;;33.40;19.65;;;3.20;99.90;;;;;;5104129;28;20024;-63
2023/01/23 08:22:26;;;;;;;30.95;19.92;;;3.20;99.90;;;;;;5075890;28;20389;-64
2023/01/23 08:24:51;;;;;;;28.35;18.80;;;3.20;99.90;;;;;;5076657;28;20123;-63
2023/01/23 08:27:17;;;;;;;28.08;18.85;;;3.30;99.90;;;;;;5109414;28;20015;-63
2023/01/23 08:29:42;;;;;;;27.70;18.55;;;3.30;99.90;;;;;;5109958;28;20510;-63
2023/01/23 08:32:08;;;;;;;28.30;18.20;;;3.30;99.90;;;;;;5082120;28;20032;-63
2023/01/23 08:34:33;;;;;;;24.98;16.77;;;3.40;99.90;;;;;;5094833;28;20444;-64
2023/01/23 08:36:59;;;;;;;25.95;16.77;;;3.40;99.90;;;;;;5107231;28;20024;-63
2023/01/23 08:39:24;;;;;;;27.25;18.25;;;3.40;99.90;;;;;;5093011;28;20101;-63
2023/01/23 08:41:50;;;;;;;26.90;19.52;;;3.40;99.90;;;;;;5110223;28;20524;-63
2023/01/23 08:44:16;;;;;;;31.88;20.45;;;3.40;99.90;;;;;;5109930;28;20028;-64
2023/01/23 08:46:44;;;;;;;29.73;19.00;;;3.40;99.90;;;;;;5098784;28;20024;-63
2023/01/23 08:49:10;;;;;;;30.70;19.50;;;3.40;99.90;;;;;;5111383;28;20397;-64
2023/01/23 08:51:35;;;;;;;29.50;19.08;;;3.50;99.90;;;;;;5113203;28;20024;-64
2023/01/23 08:54:01;;;;;;;29.10;18.15;;;3.50;99.90;;;;;;5101883;28;20032;-64
2023/01/23 08:56:26;;;;;;;30.10;18.38;;;3.50;99.90;;;;;;5105526;28;20423;-64
2023/01/23 08:58:52;;;;;;;25.58;17.10;;;3.50;99.90;;;;;;5090615;28;20473;-64
2023/01/23 09:01:21;;;;;;;27.02;17.52;;;3.50;99.90;;;;;;5095780;28;20203;-64
2023/01/23 09:03:46;;;;;;;26.63;16.48;;;3.60;99.90;;;;;;5087109;28;20020;-64
2023/01/23 09:06:14;;;;;;;24.38;15.95;;;3.60;99.90;;;;;;5108869;28;20027;-64
2023/01/23 09:08:39;;;;;;;27.40;17.02;;;3.60;99.90;;;;;;5112616;28;20027;-65
2023/01/23 09:11:07;;;;;;;26.50;18.08;;;3.70;99.90;;;;;;5113183;27;20039;-64
2023/01/23 09:13:32;;;;;;;29.23;18.60;;;3.70;99.90;;;;;;5109246;28;20035;-64
2023/01/23 09:15:59;;;;;;;25.73;16.98;;;3.70;99.90;;;;;;5072848;28;20044;-65
2023/01/23 09:18:25;;;;;;;27.10;17.08;;;3.80;99.90;;;;;;5082964;28;20036;-65
2023/01/23 09:20:52;;;;;;;27.48;17.90;;;3.80;99.90;;;;;;5100873;28;20461;-65
2023/01/23 09:23:18;;;;;;;27.08;17.88;;;3.90;99.90;;;;;;5103796;28;20034;-65
2023/01/23 09:25:43;;;;;;;27.10;17.20;;;3.90;99.90;;;;;;5109296;28;20028;-64
2023/01/23 09:28:09;;;;;;;27.67;17.65;;;3.90;99.90;;;;;;5109247;28;20035;-64
2023/01/23 09:30:34;;;;;;;24.33;16.45;;;3.90;99.90;;;;;;5105520;28;20058;-65
2023/01/23 09:33:00;;;;;;;24.25;16.30;;;3.90;99.90;;;;;;5109610;27;20412;-65
2023/01/23 09:35:25;;;;;;;29.83;18.17;;;4.00;99.90;;;;;;5103551;28;20051;-64
2023/01/23 09:38:00;;;;;;;28.70;17.50;;;4.00;99.90;;;;;;5101714;28;20032;-66
2023/01/23 09:40:35;;;;;;;25.58;16.88;;;4.00;99.90;;;;;;5104115;28;20016;-66
2023/01/23 09:43:17;;;;;;;27.77;17.30;;;4.00;99.90;;;;;;5083414;28;20032;-66
2023/01/23 09:46:08;;;;;;;32.10;18.27;;;4.10;99.90;;;;;;5078595;28;20397;-66
2023/01/23 09:48:52;;;;;;;26.55;17.80;;;4.00;99.90;;;;;;5095913;28;20039;-66
2023/01/23 09:51:40;;;;;;;25.88;16.50;;;4.10;99.90;;;;;;5106980;28;20027;-66
2023/01/23 09:54:24;;;;;;;24.63;16.05;;;4.00;99.90;;;;;;5103441;28;20028;-66
2023/01/23 09:56:51;;;;;;;26.00;16.90;;;4.10;99.90;;;;;;5109963;28;20054;-66
2023/01/23 09:59:33;;;;;;;25.45;14.95;;;4.10;99.90;;;;;;5109729;28;20046;-66
2023/01/23 10:01:58;;;;;;;21.95;14.45;;;4.10;99.90;;;;;;5088790;28;20020;-66
2023/01/23 10:04:24;;;;;;;21.80;14.85;;;4.10;99.90;;;;;;5106156;28;20020;-66
2023/01/23 10:07:19;;;;;;;25.27;15.90;;;4.20;99.90;;;;;;5107635;28;20049;-66
2023/01/23 10:10:17;;;;;;;27.50;16.13;;;4.20;99.90;;;;;;5089120;28;20590;-66
2023/01/23 10:13:01;;;;;;;22.80;15.48;;;4.20;99.90;;;;;;5105985;28;20028;-65
2023/01/23 10:15:27;;;;;;;24.23;15.27;;;4.30;99.90;;;;;;5089585;28;20055;-65
2023/01/23 10:18:36;;;;;;;23.02;15.07;;;4.20;99.90;;;;;;5106109;28;20087;-66
2023/01/23 10:21:23;;;;;;;22.73;15.95;;;4.30;99.90;;;;;;5108699;28;20019;-65
2023/01/23 10:23:58;;;;;;;25.33;15.18;;;4.30;99.90;;;;;;5107071;28;20738;-66
2023/01/23 10:26:29;;;;;;;24.27;16.70;;;4.40;99.90;;;;;;5108787;28;20019;-66
2023/01/23 10:29:01;;;;;;;23.20;15.30;;;4.40;99.90;;;;;;5104254;28;20038;-65
2023/01/23 10:31:42;;;;;;;27.17;18.17;;;4.50;99.90;;;;;;5111468;28;20065;-66
2023/01/23 10:34:36;;;;;;;27.70;16.73;;;4.50;99.90;;;;;;5108415;28;20049;-67
2023/01/23 10:37:41;;;;;;;23.50;16.55;;;4.50;99.90;;;;;;5106461;28;20043;-66
2023/01/23 10:43:20;;;;;;;21.17;14.02;;;4.60;99.90;;;;;;5069605;28;20039;-66
2023/01/23 10:45:47;;;;;;;23.30;15.02;;;4.60;99.90;;;;;;5109842;28;20500;-66
2023/01/23 10:48:31;;;;;;;28.63;16.85;;;4.70;99.90;;;;;;5108913;28;20027;-64
2023/01/23 10:50:58;;;;;;;24.85;15.52;;;4.70;99.90;;;;;;5108169;28;20028;-64
2023/01/23 10:53:24;;;;;;;26.70;16.48;;;4.70;99.90;;;;;;5087739;28;20019;-65
2023/01/23 10:55:55;;;;;;;22.48;15.65;;;4.70;99.90;;;;;;5106284;28;20368;-64
2023/01/23 10:58:31;;;;;;;24.17;16.33;;;4.80;99.90;;;;;;5087923;28;20373;-64
2023/01/23 11:00:57;;;;;;;31.38;17.88;;;4.80;99.90;;;;;;5105383;28;20439;-64
2023/01/23 11:03:27;;;;;;;29.70;17.02;;;4.80;99.90;;;;;;5108826;28;20072;-64
2023/01/23 11:05:54;;;;;;;24.40;16.33;;;4.80;99.90;;;;;;5108002;28;20372;-64
2023/01/23 11:08:22;;;;;;;28.38;17.92;;;4.80;99.90;;;;;;5107713;28;20106;-63
2023/01/23 11:10:48;;;;;;;29.67;18.38;;;4.90;99.90;;;;;;5103993;28;20049;-64
2023/01/23 11:13:27;;;;;;;28.20;18.70;;;4.90;99.90;;;;;;5100682;28;20082;-64
2023/01/23 11:15:54;;;;;;;27.92;17.58;;;5.00;99.90;;;;;;5099749;28;20048;-64
2023/01/23 11:18:31;;;;;;;24.85;16.85;;;5.00;99.90;;;;;;5110775;28;20036;-64
2023/01/23 11:20:56;;;;;;;25.08;16.27;;;5.10;99.90;;;;;;5102683;28;20054;-64
2023/01/23 11:23:22;;;;;;;25.20;16.88;;;5.20;99.90;;;;;;5098427;28;20016;-64
2023/01/23 11:25:53;;;;;;;24.05;15.50;;;5.20;99.90;;;;;;5075292;28;20103;-64
2023/01/23 11:28:29;;;;;;;24.95;16.65;;;5.20;99.90;;;;;;5101071;28;20027;-64
2023/01/23 11:31:07;;;;;;;25.85;17.58;;;5.30;99.90;;;;;;5079352;28;20540;-65
2023/01/23 11:33:37;;;;;;;26.67;17.98;;;5.30;99.90;;;;;;5094390;28;20047;-64
2023/01/23 11:36:17;;;;;;;26.88;16.98;;;5.20;99.90;;;;;;5097796;28;20072;-64
2023/01/23 11:38:58;;;;;;;23.80;15.57;;;5.20;99.90;;;;;;5088353;28;20046;-64
2023/01/23 11:41:31;;;;;;;22.83;15.50;;;5.30;99.90;;;;;;5107168;28;20463;-65
2023/01/23 11:43:57;;;;;;;24.15;16.67;;;5.30;99.90;;;;;;5084103;28;20038;-64
2023/01/23 11:47:07;;;;;;;24.48;15.60;;;5.30;99.90;;;;;;5105877;28;20396;-65
2023/01/23 11:49:56;;;;;;;22.75;14.32;;;5.30;99.90;;;;;;5108369;28;20438;-65
2023/01/23 11:52:37;;;;;;;19.60;14.27;;;5.30;99.90;;;;;;5109087;28;20408;-65
2023/01/23 11:55:38;;;;;;;22.02;14.50;;;5.40;99.90;;;;;;5105789;28;20055;-65
2023/01/23 11:58:28;;;;;;;20.10;14.68;;;5.40;99.90;;;;;;5077105;28;20400;-65
2023/01/23 12:01:04;;;;;;;22.23;15.23;;;5.40;99.90;;;;;;5086483;28;20020;-65
2023/01/23 12:03:51;;;;;;;22.25;15.02;;;5.30;99.90;;;;;;5099575;28;20031;-65
2023/01/23 12:06:53;;;;;;;21.50;15.48;;;5.30;99.90;;;;;;5102021;28;20141;-65
2023/01/23 12:09:20;;;;;;;23.00;14.93;;;5.30;99.90;;;;;;5075194;28;20495;-65
2023/01/23 12:11:55;;;;;;;22.45;15.27;;;5.30;99.90;;;;;;5108955;28;20053;-65
2023/01/23 12:14:33;;;;;;;22.67;15.15;;;5.30;99.90;;;;;;5104311;28;20024;-66
2023/01/23 12:17:22;;;;;;;21.98;13.95;;;5.30;99.90;;;;;;5110279;28;20046;-65
2023/01/23 12:20:15;;;;;;;19.43;13.97;;;5.30;99.90;;;;;;5111247;28;20012;-65
2023/01/23 12:23:03;;;;;;;20.33;14.57;;;5.30;99.90;;;;;;5098826;28;20290;-65
2023/01/23 12:25:34;;;;;;;20.65;13.77;;;5.40;99.90;;;;;;5111025;28;20026;-65
2023/01/23 12:28:28;;;;;;;22.58;14.63;;;5.40;99.90;;;;;;5092983;28;20444;-65
2023/01/23 12:31:06;;;;;;;21.92;15.77;;;5.40;99.90;;;;;;5092764;28;20099;-65
2023/01/23 12:34:01;;;;;;;25.35;15.98;;;5.40;99.90;;;;;;5093630;28;20427;-65
2023/01/23 12:36:51;;;;;;;21.80;14.50;;;5.40;99.90;;;;;;5094143;28;20558;-65
2023/01/23 12:39:43;;;;;;;20.90;14.23;;;5.30;99.90;;;;;;5094088;28;20438;-65
2023/01/23 12:42:27;;;;;;;21.35;14.55;;;5.30;99.90;;;;;;5107143;28;20042;-66
2023/01/23 12:45:23;;;;;;;21.90;14.73;;;5.30;99.90;;;;;;5093573;28;20020;-65
2023/01/23 12:47:59;;;;;;;23.38;15.57;;;5.30;99.90;;;;;;5092132;28;20031;-65
2023/01/23 12:50:48;;;;;;;25.35;15.82;;;5.30;99.90;;;;;;5084518;28;20027;-65
2023/01/23 12:53:16;;;;;;;21.77;15.25;;;5.30;99.90;;;;;;5090185;28;20036;-65
2023/01/23 12:55:56;;;;;;;25.77;16.67;;;5.30;99.90;;;;;;5106750;28;20049;-65